sensor_id;sensor_type;location;lat;lon;timestamp;P1;P2;P0
73749;PMS7003;62058;48.406;-4.514;2023-04-25T00:02:12;0.00;0.00;0.00
73749;PMS7003;62058;48.406;-4.514;2023-04-25T00:04:37;3.00;0.00;0.00
73749;PMS7003;62058;48.406;-4.514;2023-04-25T00:07:03;0.00;0.00;0.00
73749;PMS7003;62058;48.406;-4.514;2023-04-25T00:09:28;3.00;0.00;0.00
73749;PMS7003;62058;48.406;-4.514;2023-04-25T00:11:53;2.33;0.33;0.33
73749;PMS7003;62058;48.406;-4.514;2023-04-25T00:14:18;0.00;0.00;0.00
73749;PMS7003;62058;48.406;-4.514;2023-04-25T00:16:44;3.67;0.00;0.00
73749;PMS7003;62058;48.406;-4.514;2023-04-25T00:19:09;0.00;0.00;0.00
73749;PMS7003;62058;48.406;-4.514;2023-04-25T00:21:34;0.00;0.00;0.00
73749;PMS7003;62058;48.406;-4.514;2023-04-25T00:24:00;1.00;0.00;0.00
73749;PMS7003;62058;48.406;-4.514;2023-04-25T00:26:25;1.00;0.00;0.00
73749;PMS7003;62058;48.406;-4.514;2023-04-25T00:28:51;0.33;0.00;0.00
73749;PMS7003;62058;48.406;-4.514;2023-04-25T00:31:16;0.00;0.00;0.00
73749;PMS7003;62058;48.406;-4.514;2023-04-25T00:33:41;1.50;1.00;1.00
73749;PMS7003;62058;48.406;-4.514;2023-04-25T00:36:06;0.00;0.00;0.00
73749;PMS7003;62058;48.406;-4.514;2023-04-25T00:38:32;3.50;0.50;0.50
73749;PMS7003;62058;48.406;-4.514;2023-04-25T00:40:57;0.00;0.00;0.00
73749;PMS7003;62058;48.406;-4.514;2023-04-25T00:43:23;1.33;0.00;0.00
73749;PMS7003;62058;48.406;-4.514;2023-04-25T00:45:50;0.00;0.00;0.00
73749;PMS7003;62058;48.406;-4.514;2023-04-25T00:48:15;0.00;0.00;0.00
73749;PMS7003;62058;48.406;-4.514;2023-04-25T00:50:43;3.00;0.25;0.25
73749;PMS7003;62058;48.406;-4.514;2023-04-25T00:53:11;1.00;1.00;1.00
73749;PMS7003;62058;48.406;-4.514;2023-04-25T00:55:36;4.00;0.00;0.00
73749;PMS7003;62058;48.406;-4.514;2023-04-25T00:58:01;2.00;0.00;0.00
73749;PMS7003;62058;48.406;-4.514;2023-04-25T01:00:27;0.50;0.50;0.50
73749;PMS7003;62058;48.406;-4.514;2023-04-25T01:02:52;3.50;1.00;1.00
73749;PMS7003;62058;48.406;-4.514;2023-04-25T01:05:17;3.00;0.00;0.00
73749;PMS7003;62058;48.406;-4.514;2023-04-25T01:07:44;3.00;1.00;1.00
73749;PMS7003;62058;48.406;-4.514;2023-04-25T01:10:10;5.25;1.00;1.00
73749;PMS7003;62058;48.406;-4.514;2023-04-25T01:12:35;2.50;1.00;1.00
73749;PMS7003;62058;48.406;-4.514;2023-04-25T01:15:00;1.00;1.00;1.00
73749;PMS7003;62058;48.406;-4.514;2023-04-25T01:17:26;0.25;0.00;0.00
73749;PMS7003;62058;48.406;-4.514;2023-04-25T01:19:52;4.50;2.00;1.00
73749;PMS7003;62058;48.406;-4.514;2023-04-25T01:22:17;4.25;0.00;0.00
73749;PMS7003;62058;48.406;-4.514;2023-04-25T01:24:43;3.00;0.50;0.50
73749;PMS7003;62058;48.406;-4.514;2023-04-25T01:27:08;3.00;0.00;0.00
73749;PMS7003;62058;48.406;-4.514;2023-04-25T01:29:36;0.00;0.00;0.00
73749;PMS7003;62058;48.406;-4.514;2023-04-25T01:32:02;0.00;0.00;0.00
73749;PMS7003;62058;48.406;-4.514;2023-04-25T01:34:28;2.00;2.00;2.00
73749;PMS7003;62058;48.406;-4.514;2023-04-25T01:36:53;1.00;0.00;0.00
73749;PMS7003;62058;48.406;-4.514;2023-04-25T01:39:18;1.00;1.00;1.00
73749;PMS7003;62058;48.406;-4.514;2023-04-25T01:41:45;3.25;1.00;1.00
73749;PMS7003;62058;48.406;-4.514;2023-04-25T01:44:10;3.00;0.00;0.00
73749;PMS7003;62058;48.406;-4.514;2023-04-25T01:46:35;1.00;1.00;1.00
73749;PMS7003;62058;48.406;-4.514;2023-04-25T01:49:01;1.00;0.00;0.00
73749;PMS7003;62058;48.406;-4.514;2023-04-25T01:51:26;1.00;0.00;0.00
73749;PMS7003;62058;48.406;-4.514;2023-04-25T01:53:52;1.00;0.00;0.00
73749;PMS7003;62058;48.406;-4.514;2023-04-25T01:56:17;0.00;0.00;0.00
73749;PMS7003;62058;48.406;-4.514;2023-04-25T01:58:43;0.00;0.00;0.00
73749;PMS7003;62058;48.406;-4.514;2023-04-25T02:01:08;1.00;1.00;1.00
73749;PMS7003;62058;48.406;-4.514;2023-04-25T02:03:34;1.00;1.00;1.00
73749;PMS7003;62058;48.406;-4.514;2023-04-25T02:05:59;0.00;0.00;0.00
73749;PMS7003;62058;48.406;-4.514;2023-04-25T02:08:25;0.00;0.00;0.00
73749;PMS7003;62058;48.406;-4.514;2023-04-25T02:10:51;0.00;0.00;0.00
73749;PMS7003;62058;48.406;-4.514;2023-04-25T02:13:17;0.00;0.00;0.00
73749;PMS7003;62058;48.406;-4.514;2023-04-25T02:15:42;2.50;0.00;0.00
73749;PMS7003;62058;48.406;-4.514;2023-04-25T02:18:07;1.00;0.67;0.67
73749;PMS7003;62058;48.406;-4.514;2023-04-25T02:20:32;3.67;1.00;1.00
73749;PMS7003;62058;48.406;-4.514;2023-04-25T02:22:58;3.25;0.00;0.00
73749;PMS7003;62058;48.406;-4.514;2023-04-25T02:25:23;4.00;0.00;0.00
73749;PMS7003;62058;48.406;-4.514;2023-04-25T02:27:48;1.00;0.00;0.00
73749;PMS7003;62058;48.406;-4.514;2023-04-25T02:30:14;1.50;0.00;0.00
73749;PMS7003;62058;48.406;-4.514;2023-04-25T02:32:40;2.50;1.00;1.00
73749;PMS7003;62058;48.406;-4.514;2023-04-25T02:35:06;0.00;0.00;0.00
73749;PMS7003;62058;48.406;-4.514;2023-04-25T02:37:32;0.75;0.75;0.75
73749;PMS7003;62058;48.406;-4.514;2023-04-25T02:39:57;3.00;0.00;0.00
73749;PMS7003;62058;48.406;-4.514;2023-04-25T02:42:22;6.00;1.00;1.00
73749;PMS7003;62058;48.406;-4.514;2023-04-25T02:44:47;0.00;0.00;0.00
73749;PMS7003;62058;48.406;-4.514;2023-04-25T02:47:13;0.00;0.00;0.00
73749;PMS7003;62058;48.406;-4.514;2023-04-25T02:49:38;6.00;1.00;1.00
73749;PMS7003;62058;48.406;-4.514;2023-04-25T02:52:03;1.67;0.00;0.00
73749;PMS7003;62058;48.406;-4.514;2023-04-25T02:54:29;0.00;0.00;0.00
73749;PMS7003;62058;48.406;-4.514;2023-04-25T02:56:55;0.00;0.00;0.00
73749;PMS7003;62058;48.406;-4.514;2023-04-25T02:59:20;1.33;0.00;0.00
73749;PMS7003;62058;48.406;-4.514;2023-04-25T03:01:45;0.00;0.00;0.00
73749;PMS7003;62058;48.406;-4.514;2023-04-25T03:04:10;1.00;1.00;1.00
73749;PMS7003;62058;48.406;-4.514;2023-04-25T03:06:35;0.00;0.00;0.00
73749;PMS7003;62058;48.406;-4.514;2023-04-25T03:09:01;1.67;0.00;0.00
73749;PMS7003;62058;48.406;-4.514;2023-04-25T03:11:26;3.00;0.00;0.00
73749;PMS7003;62058;48.406;-4.514;2023-04-25T03:13:52;0.00;0.00;0.00
73749;PMS7003;62058;48.406;-4.514;2023-04-25T03:16:17;1.67;0.00;0.00
73749;PMS7003;62058;48.406;-4.514;2023-04-25T03:18:42;1.00;0.00;0.00
73749;PMS7003;62058;48.406;-4.514;2023-04-25T03:21:07;4.00;0.33;0.33
73749;PMS7003;62058;48.406;-4.514;2023-04-25T03:23:33;0.00;0.00;0.00
73749;PMS7003;62058;48.406;-4.514;2023-04-25T03:25:58;0.00;0.00;0.00
73749;PMS7003;62058;48.406;-4.514;2023-04-25T03:28:23;3.00;0.00;0.00
73749;PMS7003;62058;48.406;-4.514;2023-04-25T03:30:49;3.00;1.00;1.00
73749;PMS7003;62058;48.406;-4.514;2023-04-25T03:33:14;2.67;1.00;1.00
73749;PMS7003;62058;48.406;-4.514;2023-04-25T03:35:39;0.00;0.00;0.00
73749;PMS7003;62058;48.406;-4.514;2023-04-25T03:38:04;1.67;0.00;0.00
73749;PMS7003;62058;48.406;-4.514;2023-04-25T03:40:29;0.33;0.00;0.00
73749;PMS7003;62058;48.406;-4.514;2023-04-25T03:42:55;0.00;0.00;0.00
73749;PMS7003;62058;48.406;-4.514;2023-04-25T03:45:20;0.00;0.00;0.00
73749;PMS7003;62058;48.406;-4.514;2023-04-25T03:47:45;1.67;0.00;0.00
73749;PMS7003;62058;48.406;-4.514;2023-04-25T03:50:10;0.00;0.00;0.00
73749;PMS7003;62058;48.406;-4.514;2023-04-25T03:52:36;0.67;0.67;0.67
73749;PMS7003;62058;48.406;-4.514;2023-04-25T03:55:01;0.00;0.00;0.00
73749;PMS7003;62058;48.406;-4.514;2023-04-25T03:57:26;0.00;0.00;0.00
73749;PMS7003;62058;48.406;-4.514;2023-04-25T03:59:51;4.00;0.00;0.00
73749;PMS7003;62058;48.406;-4.514;2023-04-25T04:02:17;2.00;0.00;0.00
73749;PMS7003;62058;48.406;-4.514;2023-04-25T04:04:42;3.75;0.00;0.00
73749;PMS7003;62058;48.406;-4.514;2023-04-25T04:07:09;0.00;0.00;0.00
73749;PMS7003;62058;48.406;-4.514;2023-04-25T04:09:34;1.00;1.00;1.00
73749;PMS7003;62058;48.406;-4.514;2023-04-25T04:11:59;0.00;0.00;0.00
73749;PMS7003;62058;48.406;-4.514;2023-04-25T04:14:26;2.50;0.75;0.75
73749;PMS7003;62058;48.406;-4.514;2023-04-25T04:16:51;1.00;1.00;1.00
73749;PMS7003;62058;48.406;-4.514;2023-04-25T04:19:17;1.00;1.00;1.00
73749;PMS7003;62058;48.406;-4.514;2023-04-25T04:21:42;0.00;0.00;0.00
73749;PMS7003;62058;48.406;-4.514;2023-04-25T04:24:07;1.00;1.00;1.00
73749;PMS7003;62058;48.406;-4.514;2023-04-25T04:26:32;1.67;0.67;0.67
73749;PMS7003;62058;48.406;-4.514;2023-04-25T04:28:59;1.00;1.00;1.00
73749;PMS7003;62058;48.406;-4.514;2023-04-25T04:31:25;6.75;0.00;0.00
73749;PMS7003;62058;48.406;-4.514;2023-04-25T04:33:50;1.00;0.75;0.75
73749;PMS7003;62058;48.406;-4.514;2023-04-25T04:36:16;1.50;0.00;0.00
73749;PMS7003;62058;48.406;-4.514;2023-04-25T04:38:44;1.00;1.00;1.00
73749;PMS7003;62058;48.406;-4.514;2023-04-25T04:41:09;1.00;1.00;1.00
73749;PMS7003;62058;48.406;-4.514;2023-04-25T04:43:35;3.00;0.00;0.00
73749;PMS7003;62058;48.406;-4.514;2023-04-25T04:46:01;0.25;0.25;0.25
73749;PMS7003;62058;48.406;-4.514;2023-04-25T04:48:28;1.75;0.75;0.75
73749;PMS7003;62058;48.406;-4.514;2023-04-25T04:50:53;2.50;0.00;0.00
73749;PMS7003;62058;48.406;-4.514;2023-04-25T04:53:18;2.33;1.00;1.00
73749;PMS7003;62058;48.406;-4.514;2023-04-25T04:55:44;2.33;0.00;0.00
73749;PMS7003;62058;48.406;-4.514;2023-04-25T04:58:09;1.00;1.00;1.00
73749;PMS7003;62058;48.406;-4.514;2023-04-25T05:00:34;4.00;0.00;0.00
73749;PMS7003;62058;48.406;-4.514;2023-04-25T05:02:59;3.00;1.00;1.00
73749;PMS7003;62058;48.406;-4.514;2023-04-25T05:05:25;3.50;2.00;2.00
73749;PMS7003;62058;48.406;-4.514;2023-04-25T05:07:50;1.00;1.00;1.00
73749;PMS7003;62058;48.406;-4.514;2023-04-25T05:10:16;7.50;3.00;2.50
73749;PMS7003;62058;48.406;-4.514;2023-04-25T05:12:41;1.00;1.00;1.00
73749;PMS7003;62058;48.406;-4.514;2023-04-25T05:15:07;3.67;1.00;1.00
73749;PMS7003;62058;48.406;-4.514;2023-04-25T05:17:32;1.00;1.00;1.00
73749;PMS7003;62058;48.406;-4.514;2023-04-25T05:19:57;0.25;0.00;0.00
73749;PMS7003;62058;48.406;-4.514;2023-04-25T05:22:23;1.00;0.25;0.25
73749;PMS7003;62058;48.406;-4.514;2023-04-25T05:24:48;1.00;1.00;1.00
73749;PMS7003;62058;48.406;-4.514;2023-04-25T05:27:15;0.75;0.75;0.75
73749;PMS7003;62058;48.406;-4.514;2023-04-25T05:29:41;3.00;3.00;3.00
73749;PMS7003;62058;48.406;-4.514;2023-04-25T05:32:06;5.33;3.00;3.00
73749;PMS7003;62058;48.406;-4.514;2023-04-25T05:34:32;5.75;1.00;1.00
73749;PMS7003;62058;48.406;-4.514;2023-04-25T05:36:57;3.00;1.00;1.00
73749;PMS7003;62058;48.406;-4.514;2023-04-25T05:39:22;4.00;4.00;4.00
73749;PMS7003;62058;48.406;-4.514;2023-04-25T05:41:48;4.00;2.33;2.33
73749;PMS7003;62058;48.406;-4.514;2023-04-25T05:44:13;1.00;1.00;1.00
73749;PMS7003;62058;48.406;-4.514;2023-04-25T05:46:38;1.00;1.00;1.00
73749;PMS7003;62058;48.406;-4.514;2023-04-25T05:49:03;1.00;1.00;1.00
73749;PMS7003;62058;48.406;-4.514;2023-04-25T05:51:29;0.75;0.00;0.00
73749;PMS7003;62058;48.406;-4.514;2023-04-25T05:53:54;1.00;1.00;1.00
73749;PMS7003;62058;48.406;-4.514;2023-04-25T05:56:19;4.00;0.00;0.00
73749;PMS7003;62058;48.406;-4.514;2023-04-25T05:58:44;2.00;1.00;1.00
73749;PMS7003;62058;48.406;-4.514;2023-04-25T06:01:10;1.00;1.00;1.00
73749;PMS7003;62058;48.406;-4.514;2023-04-25T06:03:35;3.00;1.00;1.00
73749;PMS7003;62058;48.406;-4.514;2023-04-25T06:06:00;7.67;2.33;2.33
73749;PMS7003;62058;48.406;-4.514;2023-04-25T06:08:25;3.00;1.67;1.67
73749;PMS7003;62058;48.406;-4.514;2023-04-25T06:10:50;3.00;2.33;2.33
73749;PMS7003;62058;48.406;-4.514;2023-04-25T06:13:16;5.33;3.33;3.33
73749;PMS7003;62058;48.406;-4.514;2023-04-25T06:15:41;4.67;3.00;3.00
73749;PMS7003;62058;48.406;-4.514;2023-04-25T06:18:06;7.00;4.00;4.00
73749;PMS7003;62058;48.406;-4.514;2023-04-25T06:20:31;6.00;1.67;1.67
73749;PMS7003;62058;48.406;-4.514;2023-04-25T06:22:57;1.00;1.00;1.00
73749;PMS7003;62058;48.406;-4.514;2023-04-25T06:25:22;0.33;0.33;0.33
73749;PMS7003;62058;48.406;-4.514;2023-04-25T06:27:47;1.00;1.00;1.00
73749;PMS7003;62058;48.406;-4.514;2023-04-25T06:30:12;1.00;1.00;1.00
73749;PMS7003;62058;48.406;-4.514;2023-04-25T06:32:38;3.00;3.00;3.00
73749;PMS7003;62058;48.406;-4.514;2023-04-25T06:35:03;5.00;1.00;1.00
73749;PMS7003;62058;48.406;-4.514;2023-04-25T06:37:29;3.50;1.50;1.50
73749;PMS7003;62058;48.406;-4.514;2023-04-25T06:39:54;3.33;0.33;0.33
73749;PMS7003;62058;48.406;-4.514;2023-04-25T06:42:19;3.75;2.75;2.75
73749;PMS7003;62058;48.406;-4.514;2023-04-25T06:44:44;1.67;1.67;1.67
73749;PMS7003;62058;48.406;-4.514;2023-04-25T06:47:10;1.00;1.00;1.00
73749;PMS7003;62058;48.406;-4.514;2023-04-25T06:49:35;6.00;3.00;3.00
73749;PMS7003;62058;48.406;-4.514;2023-04-25T06:52:00;5.00;3.33;3.33
73749;PMS7003;62058;48.406;-4.514;2023-04-25T06:54:25;3.00;1.00;1.00
73749;PMS7003;62058;48.406;-4.514;2023-04-25T06:56:52;4.25;1.00;1.00
73749;PMS7003;62058;48.406;-4.514;2023-04-25T06:59:17;4.50;3.75;3.75
73749;PMS7003;62058;48.406;-4.514;2023-04-25T07:01:43;10.33;5.33;5.33
73749;PMS7003;62058;48.406;-4.514;2023-04-25T07:04:08;3.67;1.00;1.00
73749;PMS7003;62058;48.406;-4.514;2023-04-25T07:06:33;3.00;3.00;3.00
73749;PMS7003;62058;48.406;-4.514;2023-04-25T07:08:58;7.33;4.00;4.00
73749;PMS7003;62058;48.406;-4.514;2023-04-25T07:11:23;3.67;3.00;3.00
73749;PMS7003;62058;48.406;-4.514;2023-04-25T07:13:49;9.25;4.00;4.00
73749;PMS7003;62058;48.406;-4.514;2023-04-25T07:16:16;6.25;4.00;4.00
73749;PMS7003;62058;48.406;-4.514;2023-04-25T07:18:41;4.50;1.50;1.50
73749;PMS7003;62058;48.406;-4.514;2023-04-25T07:21:06;7.00;1.67;1.00
73749;PMS7003;62058;48.406;-4.514;2023-04-25T07:23:31;4.00;1.00;1.00
73749;PMS7003;62058;48.406;-4.514;2023-04-25T07:25:56;4.67;3.00;3.00
73749;PMS7003;62058;48.406;-4.514;2023-04-25T07:28:22;1.67;1.00;1.00
73749;PMS7003;62058;48.406;-4.514;2023-04-25T07:30:47;0.33;0.33;0.33
73749;PMS7003;62058;48.406;-4.514;2023-04-25T07:33:12;0.00;0.00;0.00
73749;PMS7003;62058;48.406;-4.514;2023-04-25T07:35:37;1.67;1.67;1.67
73749;PMS7003;62058;48.406;-4.514;2023-04-25T07:38:02;1.00;1.00;1.00
73749;PMS7003;62058;48.406;-4.514;2023-04-25T07:40:28;0.75;0.75;0.75
73749;PMS7003;62058;48.406;-4.514;2023-04-25T07:42:53;10.25;2.00;2.00
73749;PMS7003;62058;48.406;-4.514;2023-04-25T07:45:19;3.33;1.00;1.00
73749;PMS7003;62058;48.406;-4.514;2023-04-25T07:47:44;3.00;3.00;3.00
73749;PMS7003;62058;48.406;-4.514;2023-04-25T07:50:09;6.75;4.75;4.75
73749;PMS7003;62058;48.406;-4.514;2023-04-25T07:52:35;6.25;2.25;2.25
73749;PMS7003;62058;48.406;-4.514;2023-04-25T07:55:01;2.50;1.50;1.25
73749;PMS7003;62058;48.406;-4.514;2023-04-25T07:57:26;4.00;2.00;1.67
73749;PMS7003;62058;48.406;-4.514;2023-04-25T07:59:51;4.33;1.00;1.00
73749;PMS7003;62058;48.406;-4.514;2023-04-25T08:02:17;4.50;2.25;2.25
73749;PMS7003;62058;48.406;-4.514;2023-04-25T08:04:42;1.00;0.33;0.33
73749;PMS7003;62058;48.406;-4.514;2023-04-25T08:07:07;1.00;1.00;1.00
73749;PMS7003;62058;48.406;-4.514;2023-04-25T08:09:32;6.00;1.33;1.00
73749;PMS7003;62058;48.406;-4.514;2023-04-25T08:12:01;7.75;1.75;1.75
73749;PMS7003;62058;48.406;-4.514;2023-04-25T08:14:27;6.50;3.25;2.50
73749;PMS7003;62058;48.406;-4.514;2023-04-25T08:16:53;3.50;1.75;1.75
73749;PMS7003;62058;48.406;-4.514;2023-04-25T08:19:19;2.00;1.75;1.75
73749;PMS7003;62058;48.406;-4.514;2023-04-25T08:21:44;1.00;1.00;1.00
73749;PMS7003;62058;48.406;-4.514;2023-04-25T08:24:09;3.33;2.00;2.00
73749;PMS7003;62058;48.406;-4.514;2023-04-25T08:26:34;4.00;4.00;4.00
73749;PMS7003;62058;48.406;-4.514;2023-04-25T08:29:02;2.50;2.50;2.50
73749;PMS7003;62058;48.406;-4.514;2023-04-25T08:31:27;2.67;2.67;2.00
73749;PMS7003;62058;48.406;-4.514;2023-04-25T08:33:52;5.33;4.00;4.00
73749;PMS7003;62058;48.406;-4.514;2023-04-25T08:36:17;3.50;3.50;3.00
73749;PMS7003;62058;48.406;-4.514;2023-04-25T08:38:43;1.50;1.50;1.50
73749;PMS7003;62058;48.406;-4.514;2023-04-25T08:41:09;4.00;2.75;2.75
73749;PMS7003;62058;48.406;-4.514;2023-04-25T08:43:36;4.50;3.50;3.00
73749;PMS7003;62058;48.406;-4.514;2023-04-25T08:46:02;6.25;3.25;3.00
73749;PMS7003;62058;48.406;-4.514;2023-04-25T08:48:28;6.50;4.75;4.00
73749;PMS7003;62058;48.406;-4.514;2023-04-25T08:50:54;5.75;4.75;4.25
73749;PMS7003;62058;48.406;-4.514;2023-04-25T08:53:21;3.75;3.25;3.25
73749;PMS7003;62058;48.406;-4.514;2023-04-25T08:55:47;2.00;2.00;2.00
73749;PMS7003;62058;48.406;-4.514;2023-04-25T08:58:13;6.50;3.25;3.25
73749;PMS7003;62058;48.406;-4.514;2023-04-25T09:00:39;4.00;4.00;4.00
73749;PMS7003;62058;48.406;-4.514;2023-04-25T09:03:05;7.50;5.00;4.25
73749;PMS7003;62058;48.406;-4.514;2023-04-25T09:05:32;5.50;5.00;5.00
73749;PMS7003;62058;48.406;-4.514;2023-04-25T09:07:57;6.00;5.75;5.00
73749;PMS7003;62058;48.406;-4.514;2023-04-25T09:10:23;7.00;4.00;4.00
73749;PMS7003;62058;48.406;-4.514;2023-04-25T09:15:29;6.00;6.00;5.75
73749;PMS7003;62058;48.406;-4.514;2023-04-25T09:17:58;3.75;3.75;3.75
73749;PMS7003;62058;48.406;-4.514;2023-04-25T09:20:24;15.25;12.00;10.50
73749;PMS7003;62058;48.406;-4.514;2023-04-25T09:22:49;11.75;6.50;6.00
73749;PMS7003;62058;48.406;-4.514;2023-04-25T09:25:25;4.75;4.00;4.00
73749;PMS7003;62058;48.406;-4.514;2023-04-25T09:27:52;3.00;3.00;3.00
73749;PMS7003;62058;48.406;-4.514;2023-04-25T09:30:17;5.50;5.25;5.00
73749;PMS7003;62058;48.406;-4.514;2023-04-25T09:32:43;7.50;4.50;4.50
73749;PMS7003;62058;48.406;-4.514;2023-04-25T09:35:08;3.25;3.25;3.25
73749;PMS7003;62058;48.406;-4.514;2023-04-25T09:37:34;4.50;2.75;2.75
73749;PMS7003;62058;48.406;-4.514;2023-04-25T09:40:00;4.00;4.00;4.00
73749;PMS7003;62058;48.406;-4.514;2023-04-25T09:42:28;2.75;2.75;2.75
73749;PMS7003;62058;48.406;-4.514;2023-04-25T09:44:56;7.00;3.00;3.00
73749;PMS7003;62058;48.406;-4.514;2023-04-25T09:47:25;3.75;2.75;2.75
73749;PMS7003;62058;48.406;-4.514;2023-04-25T09:49:53;6.50;6.00;6.00
73749;PMS7003;62058;48.406;-4.514;2023-04-25T09:52:23;6.25;3.50;3.50
73749;PMS7003;62058;48.406;-4.514;2023-04-25T09:54:49;2.25;1.25;1.25
73749;PMS7003;62058;48.406;-4.514;2023-04-25T09:57:16;3.50;3.00;3.00
73749;PMS7003;62058;48.406;-4.514;2023-04-25T09:59:45;7.25;4.25;4.25
73749;PMS7003;62058;48.406;-4.514;2023-04-25T10:02:12;3.25;3.25;3.25
73749;PMS7003;62058;48.406;-4.514;2023-04-25T10:04:38;3.25;2.50;2.50
73749;PMS7003;62058;48.406;-4.514;2023-04-25T10:07:05;3.00;3.00;3.00
73749;PMS7003;62058;48.406;-4.514;2023-04-25T10:09:30;7.75;3.75;3.00
73749;PMS7003;62058;48.406;-4.514;2023-04-25T10:11:59;7.00;5.00;4.75
73749;PMS7003;62058;48.406;-4.514;2023-04-25T10:14:24;4.25;3.25;3.00
73749;PMS7003;62058;48.406;-4.514;2023-04-25T10:16:50;2.00;2.00;2.00
73749;PMS7003;62058;48.406;-4.514;2023-04-25T10:19:18;4.00;3.00;3.00
73749;PMS7003;62058;48.406;-4.514;2023-04-25T10:21:46;5.50;4.00;4.00
73749;PMS7003;62058;48.406;-4.514;2023-04-25T10:24:13;4.50;2.75;2.75
73749;PMS7003;62058;48.406;-4.514;2023-04-25T10:26:39;3.00;3.00;3.00
73749;PMS7003;62058;48.406;-4.514;2023-04-25T10:29:05;4.00;4.00;4.00
73749;PMS7003;62058;48.406;-4.514;2023-04-25T10:31:30;4.00;3.00;3.00
73749;PMS7003;62058;48.406;-4.514;2023-04-25T10:33:56;4.00;3.00;3.00
73749;PMS7003;62058;48.406;-4.514;2023-04-25T10:36:22;3.50;3.25;3.00
73749;PMS7003;62058;48.406;-4.514;2023-04-25T10:38:48;4.00;4.00;3.75
73749;PMS7003;62058;48.406;-4.514;2023-04-25T10:41:15;3.25;3.00;3.00
73749;PMS7003;62058;48.406;-4.514;2023-04-25T10:43:43;6.75;3.75;3.25
73749;PMS7003;62058;48.406;-4.514;2023-04-25T10:46:18;3.50;3.50;3.50
73749;PMS7003;62058;48.406;-4.514;2023-04-25T10:48:47;6.00;4.25;4.00
73749;PMS7003;62058;48.406;-4.514;2023-04-25T10:51:17;4.75;4.75;4.75
73749;PMS7003;62058;48.406;-4.514;2023-04-25T10:53:43;4.50;3.00;3.00
73749;PMS7003;62058;48.406;-4.514;2023-04-25T10:56:16;4.75;2.00;2.00
73749;PMS7003;62058;48.406;-4.514;2023-04-25T10:58:42;3.00;2.50;2.50
73749;PMS7003;62058;48.406;-4.514;2023-04-25T11:01:07;3.50;3.00;3.00
73749;PMS7003;62058;48.406;-4.514;2023-04-25T11:03:36;2.25;2.25;2.25
73749;PMS7003;62058;48.406;-4.514;2023-04-25T11:06:02;2.25;2.25;2.25
73749;PMS7003;62058;48.406;-4.514;2023-04-25T11:08:46;6.50;4.00;4.00
73749;PMS7003;62058;48.406;-4.514;2023-04-25T11:11:12;3.50;3.00;3.00
73749;PMS7003;62058;48.406;-4.514;2023-04-25T11:13:37;4.00;3.00;3.00
73749;PMS7003;62058;48.406;-4.514;2023-04-25T11:16:03;3.00;2.00;2.00
73749;PMS7003;62058;48.406;-4.514;2023-04-25T11:18:28;3.50;3.50;3.25
73749;PMS7003;62058;48.406;-4.514;2023-04-25T11:20:53;5.00;3.00;3.00
73749;PMS7003;62058;48.406;-4.514;2023-04-25T11:23:18;6.00;3.00;2.00
73749;PMS7003;62058;48.406;-4.514;2023-04-25T11:25:44;3.00;2.33;2.33
73749;PMS7003;62058;48.406;-4.514;2023-04-25T11:28:09;2.25;2.00;2.00
73749;PMS7003;62058;48.406;-4.514;2023-04-25T11:30:35;6.50;3.00;3.00
73749;PMS7003;62058;48.406;-4.514;2023-04-25T11:33:00;2.00;2.00;2.00
73749;PMS7003;62058;48.406;-4.514;2023-04-25T11:35:25;4.67;3.00;3.00
73749;PMS7003;62058;48.406;-4.514;2023-04-25T11:37:50;4.00;3.33;3.00
73749;PMS7003;62058;48.406;-4.514;2023-04-25T11:40:16;5.00;5.00;4.75
73749;PMS7003;62058;48.406;-4.514;2023-04-25T11:42:45;3.25;2.25;2.25
73749;PMS7003;62058;48.406;-4.514;2023-04-25T11:45:10;4.00;4.00;3.50
73749;PMS7003;62058;48.406;-4.514;2023-04-25T11:47:36;5.25;3.75;3.75
73749;PMS7003;62058;48.406;-4.514;2023-04-25T11:50:02;3.00;3.00;3.00
73749;PMS7003;62058;48.406;-4.514;2023-04-25T11:52:41;3.25;3.25;3.00
73749;PMS7003;62058;48.406;-4.514;2023-04-25T11:55:07;2.50;1.00;1.00
73749;PMS7003;62058;48.406;-4.514;2023-04-25T11:57:33;3.25;2.25;2.25
73749;PMS7003;62058;48.406;-4.514;2023-04-25T12:00:05;3.00;2.00;2.00
73749;PMS7003;62058;48.406;-4.514;2023-04-25T12:02:31;5.25;4.25;3.50
73749;PMS7003;62058;48.406;-4.514;2023-04-25T12:04:58;1.25;1.25;1.00
73749;PMS7003;62058;48.406;-4.514;2023-04-25T12:07:28;3.00;2.00;2.00
73749;PMS7003;62058;48.406;-4.514;2023-04-25T12:09:53;4.75;3.00;3.00
73749;PMS7003;62058;48.406;-4.514;2023-04-25T12:12:18;3.00;1.75;1.75
73749;PMS7003;62058;48.406;-4.514;2023-04-25T12:14:46;4.00;3.00;3.00
73749;PMS7003;62058;48.406;-4.514;2023-04-25T12:17:12;3.25;2.00;2.00
73749;PMS7003;62058;48.406;-4.514;2023-04-25T12:19:38;3.00;2.00;2.00
73749;PMS7003;62058;48.406;-4.514;2023-04-25T12:22:18;5.00;2.25;2.25
73749;PMS7003;62058;48.406;-4.514;2023-04-25T12:24:44;2.75;2.75;2.75
73749;PMS7003;62058;48.406;-4.514;2023-04-25T12:27:10;4.50;2.00;2.00
73749;PMS7003;62058;48.406;-4.514;2023-04-25T12:29:35;2.00;2.00;2.00
73749;PMS7003;62058;48.406;-4.514;2023-04-25T12:32:00;2.25;2.25;2.25
73749;PMS7003;62058;48.406;-4.514;2023-04-25T12:34:28;3.00;3.00;3.00
73749;PMS7003;62058;48.406;-4.514;2023-04-25T12:36:53;2.00;2.00;2.00
73749;PMS7003;62058;48.406;-4.514;2023-04-25T12:39:20;3.75;3.75;3.75
73749;PMS7003;62058;48.406;-4.514;2023-04-25T12:41:46;5.00;2.00;2.00
73749;PMS7003;62058;48.406;-4.514;2023-04-25T12:44:12;2.25;2.25;2.25
73749;PMS7003;62058;48.406;-4.514;2023-04-25T12:46:38;0.00;0.00;0.00
73749;PMS7003;62058;48.406;-4.514;2023-04-25T12:49:03;2.25;2.25;2.25
73749;PMS7003;62058;48.406;-4.514;2023-04-25T12:51:29;2.50;2.50;2.50
73749;PMS7003;62058;48.406;-4.514;2023-04-25T12:53:54;2.00;2.00;2.00
73749;PMS7003;62058;48.406;-4.514;2023-04-25T12:56:20;3.00;3.00;3.00
73749;PMS7003;62058;48.406;-4.514;2023-04-25T12:58:45;4.00;2.25;2.25
73749;PMS7003;62058;48.406;-4.514;2023-04-25T13:01:11;2.00;1.00;1.00
73749;PMS7003;62058;48.406;-4.514;2023-04-25T13:03:37;4.00;2.75;2.25
73749;PMS7003;62058;48.406;-4.514;2023-04-25T13:06:02;3.00;2.00;2.00
73749;PMS7003;62058;48.406;-4.514;2023-04-25T13:08:28;4.50;3.25;3.25
73749;PMS7003;62058;48.406;-4.514;2023-04-25T13:10:53;3.00;3.00;3.00
73749;PMS7003;62058;48.406;-4.514;2023-04-25T13:13:18;4.00;3.00;3.00
73749;PMS7003;62058;48.406;-4.514;2023-04-25T13:15:43;4.00;2.00;2.00
73749;PMS7003;62058;48.406;-4.514;2023-04-25T13:18:08;2.00;2.00;2.00
73749;PMS7003;62058;48.406;-4.514;2023-04-25T13:20:34;3.00;2.00;2.00
73749;PMS7003;62058;48.406;-4.514;2023-04-25T13:22:59;3.00;3.00;3.00
73749;PMS7003;62058;48.406;-4.514;2023-04-25T13:25:24;4.00;4.00;4.00
73749;PMS7003;62058;48.406;-4.514;2023-04-25T13:27:50;3.50;3.00;3.00
73749;PMS7003;62058;48.406;-4.514;2023-04-25T13:30:15;2.75;1.00;1.00
73749;PMS7003;62058;48.406;-4.514;2023-04-25T13:32:40;4.00;3.00;3.00
73749;PMS7003;62058;48.406;-4.514;2023-04-25T13:35:10;13.00;7.33;7.33
73749;PMS7003;62058;48.406;-4.514;2023-04-25T13:37:36;9.75;3.50;3.00
73749;PMS7003;62058;48.406;-4.514;2023-04-25T13:40:02;3.75;3.75;3.25
73749;PMS7003;62058;48.406;-4.514;2023-04-25T13:42:29;2.25;2.25;2.00
73749;PMS7003;62058;48.406;-4.514;2023-04-25T13:44:55;6.75;4.00;4.00
73749;PMS7003;62058;48.406;-4.514;2023-04-25T13:47:23;7.00;3.33;3.33
73749;PMS7003;62058;48.406;-4.514;2023-04-25T13:49:49;5.50;4.50;4.00
73749;PMS7003;62058;48.406;-4.514;2023-04-25T13:52:14;6.50;4.50;4.25
73749;PMS7003;62058;48.406;-4.514;2023-04-25T13:54:40;11.75;4.75;4.50
73749;PMS7003;62058;48.406;-4.514;2023-04-25T13:57:05;7.75;4.75;4.00
73749;PMS7003;62058;48.406;-4.514;2023-04-25T13:59:31;5.50;4.25;4.00
73749;PMS7003;62058;48.406;-4.514;2023-04-25T14:01:57;9.00;7.00;7.00
73749;PMS7003;62058;48.406;-4.514;2023-04-25T14:04:22;6.67;5.00;5.00